sensor_id;sensor_type;location;lat;lon;timestamp;P1;durP1;ratioP1;P2;durP2;ratioP2
41546;SDS011;27271;45.412;10.852;2024-01-30T00:02:37;87.60;;;33.85;;
41546;SDS011;27271;45.412;10.852;2024-01-30T00:05:59;88.07;;;34.95;;
41546;SDS011;27271;45.412;10.852;2024-01-30T00:09:21;88.60;;;33.90;;
41546;SDS011;27271;45.412;10.852;2024-01-30T00:12:43;84.13;;;34.72;;
41546;SDS011;27271;45.412;10.852;2024-01-30T00:16:05;85.70;;;33.80;;
41546;SDS011;27271;45.412;10.852;2024-01-30T00:19:28;97.47;;;35.47;;
41546;SDS011;27271;45.412;10.852;2024-01-30T00:22:51;77.90;;;31.20;;
41546;SDS011;27271;45.412;10.852;2024-01-30T00:26:13;90.43;;;31.05;;
41546;SDS011;27271;45.412;10.852;2024-01-30T00:29:39;79.07;;;32.13;;
41546;SDS011;27271;45.412;10.852;2024-01-30T00:33:01;85.35;;;32.72;;
41546;SDS011;27271;45.412;10.852;2024-01-30T00:36:24;80.57;;;31.85;;
41546;SDS011;27271;45.412;10.852;2024-01-30T00:39:46;73.65;;;30.88;;
41546;SDS011;27271;45.412;10.852;2024-01-30T00:43:08;80.05;;;31.98;;
41546;SDS011;27271;45.412;10.852;2024-01-30T00:46:30;69.68;;;30.73;;
41546;SDS011;27271;45.412;10.852;2024-01-30T00:49:53;80.53;;;32.58;;
41546;SDS011;27271;45.412;10.852;2024-01-30T00:53:15;92.53;;;34.47;;
41546;SDS011;27271;45.412;10.852;2024-01-30T00:56:37;78.10;;;31.88;;
41546;SDS011;27271;45.412;10.852;2024-01-30T00:59:59;92.32;;;31.83;;
41546;SDS011;27271;45.412;10.852;2024-01-30T01:03:21;92.63;;;31.02;;
41546;SDS011;27271;45.412;10.852;2024-01-30T01:06:44;108.95;;;32.03;;
41546;SDS011;27271;45.412;10.852;2024-01-30T01:10:06;103.70;;;32.53;;
41546;SDS011;27271;45.412;10.852;2024-01-30T01:13:30;84.10;;;30.10;;
41546;SDS011;27271;45.412;10.852;2024-01-30T01:16:52;93.88;;;30.08;;
41546;SDS011;27271;45.412;10.852;2024-01-30T01:20:14;124.93;;;29.42;;
41546;SDS011;27271;45.412;10.852;2024-01-30T01:23:36;121.03;;;27.50;;
41546;SDS011;27271;45.412;10.852;2024-01-30T01:26:58;111.55;;;28.15;;
41546;SDS011;27271;45.412;10.852;2024-01-30T01:30:21;101.38;;;30.95;;
41546;SDS011;27271;45.412;10.852;2024-01-30T01:33:43;139.05;;;30.67;;
41546;SDS011;27271;45.412;10.852;2024-01-30T01:37:05;147.00;;;30.63;;
41546;SDS011;27271;45.412;10.852;2024-01-30T01:40:29;146.15;;;29.38;;
41546;SDS011;27271;45.412;10.852;2024-01-30T01:43:51;163.55;;;30.17;;
41546;SDS011;27271;45.412;10.852;2024-01-30T01:47:13;99.38;;;28.17;;
41546;SDS011;27271;45.412;10.852;2024-01-30T01:50:36;97.65;;;30.02;;
41546;SDS011;27271;45.412;10.852;2024-01-30T01:54:01;72.15;;;27.65;;
41546;SDS011;27271;45.412;10.852;2024-01-30T01:57:25;72.70;;;27.58;;
41546;SDS011;27271;45.412;10.852;2024-01-30T02:00:47;84.72;;;29.83;;
41546;SDS011;27271;45.412;10.852;2024-01-30T02:04:10;84.13;;;24.73;;
41546;SDS011;27271;45.412;10.852;2024-01-30T02:07:32;104.38;;;28.67;;
41546;SDS011;27271;45.412;10.852;2024-01-30T02:10:54;70.82;;;26.25;;
41546;SDS011;27271;45.412;10.852;2024-01-30T02:14:17;94.90;;;25.80;;
41546;SDS011;27271;45.412;10.852;2024-01-30T02:17:39;78.03;;;26.33;;
41546;SDS011;27271;45.412;10.852;2024-01-30T02:21:04;66.88;;;24.65;;
41546;SDS011;27271;45.412;10.852;2024-01-30T02:24:27;76.55;;;26.15;;
41546;SDS011;27271;45.412;10.852;2024-01-30T02:27:49;90.68;;;28.15;;
41546;SDS011;27271;45.412;10.852;2024-01-30T02:31:12;68.68;;;28.83;;
41546;SDS011;27271;45.412;10.852;2024-01-30T02:34:34;107.45;;;29.40;;
41546;SDS011;27271;45.412;10.852;2024-01-30T02:37:56;97.95;;;27.15;;
41546;SDS011;27271;45.412;10.852;2024-01-30T02:41:18;88.88;;;26.70;;
41546;SDS011;27271;45.412;10.852;2024-01-30T02:44:41;96.35;;;28.60;;
41546;SDS011;27271;45.412;10.852;2024-01-30T02:48:03;70.45;;;26.80;;
41546;SDS011;27271;45.412;10.852;2024-01-30T02:51:25;101.35;;;27.20;;
41546;SDS011;27271;45.412;10.852;2024-01-30T02:54:47;80.38;;;28.85;;
41546;SDS011;27271;45.412;10.852;2024-01-30T02:58:10;79.18;;;28.75;;
41546;SDS011;27271;45.412;10.852;2024-01-30T03:01:32;72.25;;;26.73;;
41546;SDS011;27271;45.412;10.852;2024-01-30T03:04:54;68.25;;;26.73;;
41546;SDS011;27271;45.412;10.852;2024-01-30T03:08:17;96.65;;;28.15;;
41546;SDS011;27271;45.412;10.852;2024-01-30T03:11:39;71.88;;;25.02;;
41546;SDS011;27271;45.412;10.852;2024-01-30T03:15:01;85.32;;;26.67;;
41546;SDS011;27271;45.412;10.852;2024-01-30T03:18:23;70.18;;;26.13;;
41546;SDS011;27271;45.412;10.852;2024-01-30T03:21:45;71.60;;;28.02;;
41546;SDS011;27271;45.412;10.852;2024-01-30T03:25:07;80.50;;;27.27;;
41546;SDS011;27271;45.412;10.852;2024-01-30T03:28:30;71.32;;;27.02;;
41546;SDS011;27271;45.412;10.852;2024-01-30T03:31:52;79.47;;;27.50;;
41546;SDS011;27271;45.412;10.852;2024-01-30T03:35:14;68.95;;;25.88;;
41546;SDS011;27271;45.412;10.852;2024-01-30T03:38:36;80.80;;;26.55;;
41546;SDS011;27271;45.412;10.852;2024-01-30T03:41:58;63.25;;;24.95;;
41546;SDS011;27271;45.412;10.852;2024-01-30T03:45:21;59.50;;;25.52;;
41546;SDS011;27271;45.412;10.852;2024-01-30T03:48:44;79.18;;;25.42;;
41546;SDS011;27271;45.412;10.852;2024-01-30T03:52:07;70.82;;;25.50;;
41546;SDS011;27271;45.412;10.852;2024-01-30T03:55:29;63.20;;;25.83;;
41546;SDS011;27271;45.412;10.852;2024-01-30T03:58:51;66.13;;;27.13;;
41546;SDS011;27271;45.412;10.852;2024-01-30T04:02:13;69.38;;;25.65;;
41546;SDS011;27271;45.412;10.852;2024-01-30T04:05:36;70.30;;;28.98;;
41546;SDS011;27271;45.412;10.852;2024-01-30T04:08:58;63.72;;;26.20;;
41546;SDS011;27271;45.412;10.852;2024-01-30T04:12:20;64.85;;;27.02;;
41546;SDS011;27271;45.412;10.852;2024-01-30T04:15:42;65.13;;;29.65;;
41546;SDS011;27271;45.412;10.852;2024-01-30T04:19:05;69.93;;;28.52;;
41546;SDS011;27271;45.412;10.852;2024-01-30T04:22:27;74.78;;;26.83;;
41546;SDS011;27271;45.412;10.852;2024-01-30T04:25:49;63.42;;;26.55;;
41546;SDS011;27271;45.412;10.852;2024-01-30T04:29:11;64.07;;;26.08;;
41546;SDS011;27271;45.412;10.852;2024-01-30T04:32:34;56.30;;;25.30;;
41546;SDS011;27271;45.412;10.852;2024-01-30T04:35:57;47.75;;;21.75;;
41546;SDS011;27271;45.412;10.852;2024-01-30T04:39:19;50.00;;;22.40;;
41546;SDS011;27271;45.412;10.852;2024-01-30T04:42:42;56.00;;;23.17;;
41546;SDS011;27271;45.412;10.852;2024-01-30T04:46:04;52.88;;;21.67;;
41546;SDS011;27271;45.412;10.852;2024-01-30T04:49:27;49.65;;;20.95;;
41546;SDS011;27271;45.412;10.852;2024-01-30T04:52:51;66.43;;;25.73;;
41546;SDS011;27271;45.412;10.852;2024-01-30T04:56:13;51.67;;;23.77;;
41546;SDS011;27271;45.412;10.852;2024-01-30T04:59:35;61.83;;;24.80;;
41546;SDS011;27271;45.412;10.852;2024-01-30T05:28:14;62.28;;;24.58;;
41546;SDS011;27271;45.412;10.852;2024-01-30T05:31:36;63.15;;;25.10;;
41546;SDS011;27271;45.412;10.852;2024-01-30T05:34:59;65.22;;;25.25;;
41546;SDS011;27271;45.412;10.852;2024-01-30T05:38:21;54.08;;;24.70;;
41546;SDS011;27271;45.412;10.852;2024-01-30T05:41:43;61.03;;;24.17;;
41546;SDS011;27271;45.412;10.852;2024-01-30T05:45:07;58.65;;;25.38;;
41546;SDS011;27271;45.412;10.852;2024-01-30T05:48:30;58.20;;;23.60;;
41546;SDS011;27271;45.412;10.852;2024-01-30T05:51:52;58.00;;;24.73;;
41546;SDS011;27271;45.412;10.852;2024-01-30T05:55:14;58.17;;;21.52;;
41546;SDS011;27271;45.412;10.852;2024-01-30T05:58:37;57.35;;;21.98;;
41546;SDS011;27271;45.412;10.852;2024-01-30T06:01:59;45.05;;;21.25;;
41546;SDS011;27271;45.412;10.852;2024-01-30T06:05:21;56.30;;;24.88;;
41546;SDS011;27271;45.412;10.852;2024-01-30T06:08:44;50.65;;;21.75;;
41546;SDS011;27271;45.412;10.852;2024-01-30T06:12:06;52.80;;;22.77;;
41546;SDS011;27271;45.412;10.852;2024-01-30T06:15:28;55.22;;;24.35;;
41546;SDS011;27271;45.412;10.852;2024-01-30T06:18:54;52.83;;;22.58;;
41546;SDS011;27271;45.412;10.852;2024-01-30T06:22:19;48.45;;;21.42;;
41546;SDS011;27271;45.412;10.852;2024-01-30T06:25:41;49.05;;;20.58;;
41546;SDS011;27271;45.412;10.852;2024-01-30T06:29:03;46.28;;;21.42;;
41546;SDS011;27271;45.412;10.852;2024-01-30T06:32:26;54.42;;;20.77;;
41546;SDS011;27271;45.412;10.852;2024-01-30T06:35:50;47.03;;;19.35;;
41546;SDS011;27271;45.412;10.852;2024-01-30T06:39:12;51.30;;;22.25;;
41546;SDS011;27271;45.412;10.852;2024-01-30T06:42:34;56.60;;;22.85;;
41546;SDS011;27271;45.412;10.852;2024-01-30T06:45:56;53.53;;;21.02;;
41546;SDS011;27271;45.412;10.852;2024-01-30T06:49:18;50.90;;;21.50;;
41546;SDS011;27271;45.412;10.852;2024-01-30T06:52:41;59.05;;;23.50;;
41546;SDS011;27271;45.412;10.852;2024-01-30T06:56:03;55.78;;;22.73;;
41546;SDS011;27271;45.412;10.852;2024-01-30T06:59:26;46.08;;;19.95;;
41546;SDS011;27271;45.412;10.852;2024-01-30T07:02:48;48.65;;;20.23;;
41546;SDS011;27271;45.412;10.852;2024-01-30T07:06:10;43.60;;;19.75;;
41546;SDS011;27271;45.412;10.852;2024-01-30T07:09:33;51.50;;;20.10;;
41546;SDS011;27271;45.412;10.852;2024-01-30T07:12:57;38.92;;;17.75;;
41546;SDS011;27271;45.412;10.852;2024-01-30T07:16:20;46.55;;;20.58;;
41546;SDS011;27271;45.412;10.852;2024-01-30T07:19:42;47.25;;;19.77;;
41546;SDS011;27271;45.412;10.852;2024-01-30T07:23:04;52.05;;;21.80;;
41546;SDS011;27271;45.412;10.852;2024-01-30T07:26:26;43.33;;;20.23;;
41546;SDS011;27271;45.412;10.852;2024-01-30T07:29:51;66.75;;;26.65;;
41546;SDS011;27271;45.412;10.852;2024-01-30T07:33:13;54.20;;;23.20;;
41546;SDS011;27271;45.412;10.852;2024-01-30T07:36:35;66.60;;;24.42;;
41546;SDS011;27271;45.412;10.852;2024-01-30T07:40:00;76.38;;;24.05;;
41546;SDS011;27271;45.412;10.852;2024-01-30T07:43:23;52.35;;;22.73;;
41546;SDS011;27271;45.412;10.852;2024-01-30T07:46:46;83.25;;;23.80;;
41546;SDS011;27271;45.412;10.852;2024-01-30T07:50:09;59.15;;;22.85;;
41546;SDS011;27271;45.412;10.852;2024-01-30T07:53:31;77.65;;;26.20;;
41546;SDS011;27271;45.412;10.852;2024-01-30T07:56:54;88.13;;;25.50;;
41546;SDS011;27271;45.412;10.852;2024-01-30T08:00:16;128.43;;;28.10;;
41546;SDS011;27271;45.412;10.852;2024-01-30T08:03:39;107.05;;;26.63;;
41546;SDS011;27271;45.412;10.852;2024-01-30T08:07:03;113.28;;;28.85;;
41546;SDS011;27271;45.412;10.852;2024-01-30T08:10:25;97.32;;;27.35;;
41546;SDS011;27271;45.412;10.852;2024-01-30T08:13:48;72.82;;;27.02;;
41546;SDS011;27271;45.412;10.852;2024-01-30T08:17:10;78.13;;;25.73;;
41546;SDS011;27271;45.412;10.852;2024-01-30T08:20:32;141.02;;;30.08;;
41546;SDS011;27271;45.412;10.852;2024-01-30T08:23:55;65.32;;;24.40;;
41546;SDS011;27271;45.412;10.852;2024-01-30T08:27:17;106.65;;;26.58;;
41546;SDS011;27271;45.412;10.852;2024-01-30T08:30:39;93.55;;;24.73;;
41546;SDS011;27271;45.412;10.852;2024-01-30T08:34:02;104.25;;;29.65;;
41546;SDS011;27271;45.412;10.852;2024-01-30T08:37:25;111.95;;;27.50;;
41546;SDS011;27271;45.412;10.852;2024-01-30T08:40:47;108.20;;;29.38;;
41546;SDS011;27271;45.412;10.852;2024-01-30T08:44:10;101.53;;;28.80;;
41546;SDS011;27271;45.412;10.852;2024-01-30T08:47:33;97.38;;;31.45;;
41546;SDS011;27271;45.412;10.852;2024-01-30T08:50:55;99.47;;;32.20;;
41546;SDS011;27271;45.412;10.852;2024-01-30T08:54:18;77.85;;;30.40;;
41546;SDS011;27271;45.412;10.852;2024-01-30T08:57:40;98.68;;;38.28;;
41546;SDS011;27271;45.412;10.852;2024-01-30T09:01:02;87.38;;;35.03;;
41546;SDS011;27271;45.412;10.852;2024-01-30T09:04:27;91.95;;;36.83;;
41546;SDS011;27271;45.412;10.852;2024-01-30T09:07:49;109.75;;;40.28;;
41546;SDS011;27271;45.412;10.852;2024-01-30T09:11:12;98.10;;;37.47;;
41546;SDS011;27271;45.412;10.852;2024-01-30T09:14:35;114.93;;;44.20;;
41546;SDS011;27271;45.412;10.852;2024-01-30T09:17:58;114.15;;;42.67;;
41546;SDS011;27271;45.412;10.852;2024-01-30T09:21:21;93.72;;;37.60;;
41546;SDS011;27271;45.412;10.852;2024-01-30T09:24:43;133.35;;;40.92;;
41546;SDS011;27271;45.412;10.852;2024-01-30T09:28:05;117.43;;;41.67;;
41546;SDS011;27271;45.412;10.852;2024-01-30T09:31:28;123.65;;;45.38;;
41546;SDS011;27271;45.412;10.852;2024-01-30T09:34:50;114.88;;;40.13;;
41546;SDS011;27271;45.412;10.852;2024-01-30T09:38:13;113.82;;;40.75;;
41546;SDS011;27271;45.412;10.852;2024-01-30T09:41:38;122.22;;;44.25;;
41546;SDS011;27271;45.412;10.852;2024-01-30T09:45:08;116.25;;;43.45;;
41546;SDS011;27271;45.412;10.852;2024-01-30T09:48:32;120.90;;;45.75;;
41546;SDS011;27271;45.412;10.852;2024-01-30T09:51:56;116.70;;;44.75;;
41546;SDS011;27271;45.412;10.852;2024-01-30T09:55:18;123.57;;;49.65;;
41546;SDS011;27271;45.412;10.852;2024-01-30T09:58:41;139.82;;;51.92;;
41546;SDS011;27271;45.412;10.852;2024-01-30T10:02:03;140.55;;;51.60;;
41546;SDS011;27271;45.412;10.852;2024-01-30T10:05:29;150.88;;;55.33;;
41546;SDS011;27271;45.412;10.852;2024-01-30T10:08:55;150.10;;;53.17;;
41546;SDS011;27271;45.412;10.852;2024-01-30T10:12:19;140.65;;;51.22;;
41546;SDS011;27271;45.412;10.852;2024-01-30T10:15:41;134.13;;;48.65;;
41546;SDS011;27271;45.412;10.852;2024-01-30T10:19:04;144.07;;;55.75;;
41546;SDS011;27271;45.412;10.852;2024-01-30T10:22:26;142.02;;;54.15;;
41546;SDS011;27271;45.412;10.852;2024-01-30T10:25:50;135.40;;;51.78;;
41546;SDS011;27271;45.412;10.852;2024-01-30T10:29:13;137.75;;;56.45;;
41546;SDS011;27271;45.412;10.852;2024-01-30T10:32:35;128.52;;;51.00;;
41546;SDS011;27271;45.412;10.852;2024-01-30T10:36:00;131.43;;;50.63;;
41546;SDS011;27271;45.412;10.852;2024-01-30T10:39:24;132.65;;;51.55;;
41546;SDS011;27271;45.412;10.852;2024-01-30T10:42:49;139.57;;;55.85;;
41546;SDS011;27271;45.412;10.852;2024-01-30T10:46:20;123.25;;;51.45;;
